sensor_id;sensor_type;location;lat;lon;timestamp;pressure;altitude;pressure_sealevel;temperature;humidity
57799;BME280;43626;53.866;30.298;2023-03-26T00:03:51;1007.6;;;8.3;65.6
57799;BME280;43626;53.866;30.298;2023-03-26T00:08:42;1007.5;;;8.3;65.6
57799;BME280;43626;53.866;30.298;2023-03-26T00:14:17;1007.4;;;8.3;65.8
57799;BME280;43626;53.866;30.298;2023-03-26T00:19:27;1007.3;;;8.3;65.8
57799;BME280;43626;53.866;30.298;2023-03-26T00:24:02;1007.3;;;8.4;65.8
57799;BME280;43626;53.866;30.298;2023-03-26T00:29:11;1007.2;;;8.4;65.8
57799;BME280;43626;53.866;30.298;2023-03-26T00:34:03;1007.2;;;8.4;65.7
57799;BME280;43626;53.866;30.298;2023-03-26T00:39:15;1007.2;;;8.3;65.5
57799;BME280;43626;53.866;30.298;2023-03-26T00:44:15;1007.1;;;8.3;65.5
57799;BME280;43626;53.866;30.298;2023-03-26T00:49:01;1007.1;;;8.2;65.8
57799;BME280;43626;53.866;30.298;2023-03-26T00:53:41;1007.1;;;8.2;65.8
57799;BME280;43626;53.866;30.298;2023-03-26T00:59:13;1007.1;;;8.1;65.9
57799;BME280;43626;53.866;30.298;2023-03-26T01:04:22;1007.1;;;8.1;65.8
57799;BME280;43626;53.866;30.298;2023-03-26T01:09:32;1007.1;;;8.1;66.2
57799;BME280;43626;53.866;30.298;2023-03-26T01:14:04;1007.1;;;8.1;66.2
57799;BME280;43626;53.866;30.298;2023-03-26T01:19:01;1007.1;;;8.2;66.3
57799;BME280;43626;53.866;30.298;2023-03-26T01:23:59;1007.1;;;8.2;66.1
57799;BME280;43626;53.866;30.298;2023-03-26T01:29:19;1007.1;;;8.2;66
57799;BME280;43626;53.866;30.298;2023-03-26T01:34:29;1007.1;;;8.2;66
57799;BME280;43626;53.866;30.298;2023-03-26T01:39:04;1007.1;;;8.3;66.1
57799;BME280;43626;53.866;30.298;2023-03-26T01:43:53;1007;;;8.3;66.2
57799;BME280;43626;53.866;30.298;2023-03-26T01:48:42;1007;;;8.2;66.2
57799;BME280;43626;53.866;30.298;2023-03-26T01:54:14;1007;;;8.2;66.3
57799;BME280;43626;53.866;30.298;2023-03-26T01:59:32;1007;;;8.3;66.3
57799;BME280;43626;53.866;30.298;2023-03-26T02:04:04;1007;;;8.3;66.3
57799;BME280;43626;53.866;30.298;2023-03-26T02:08:52;1007;;;8.3;66.5
57799;BME280;43626;53.866;30.298;2023-03-26T02:14:19;1006.9;;;8.3;66.3
57799;BME280;43626;53.866;30.298;2023-03-26T02:19:17;1006.9;;;8.3;66.3
57799;BME280;43626;53.866;30.298;2023-03-26T02:24:29;1006.9;;;8.3;66.3
57799;BME280;43626;53.866;30.298;2023-03-26T02:29:01;1006.9;;;8.4;66.4
57799;BME280;43626;53.866;30.298;2023-03-26T02:33:41;1006.9;;;8.4;66.6
57799;BME280;43626;53.866;30.298;2023-03-26T02:39:03;1006.8;;;8.4;66.7
57799;BME280;43626;53.866;30.298;2023-03-26T02:44:15;1006.8;;;8.4;66.7
57799;BME280;43626;53.866;30.298;2023-03-26T02:49:27;1006.8;;;8.4;66.2
57799;BME280;43626;53.866;30.298;2023-03-26T02:54:01;1006.7;;;8.3;66.2
57799;BME280;43626;53.866;30.298;2023-03-26T02:58:51;1006.7;;;8.3;66.1
57799;BME280;43626;53.866;30.298;2023-03-26T03:04:19;1006.7;;;8.2;66.1
57799;BME280;43626;53.866;30.298;2023-03-26T03:09:17;1006.7;;;8.1;66.5
57799;BME280;43626;53.866;30.298;2023-03-26T03:14:31;1006.6;;;8.1;66.6
57799;BME280;43626;53.866;30.298;2023-03-26T03:19:19;1006.6;;;8.1;66.7
57799;BME280;43626;53.866;30.298;2023-03-26T03:24:03;1006.5;;;8.1;66.7
57799;BME280;43626;53.866;30.298;2023-03-26T03:29:03;1006.5;;;8.1;66.6
57799;BME280;43626;53.866;30.298;2023-03-26T03:34:17;1006.5;;;8.1;66.6
57799;BME280;43626;53.866;30.298;2023-03-26T03:39:29;1006.5;;;8.1;66.6
57799;BME280;43626;53.866;30.298;2023-03-26T03:44:15;1006.4;;;8.1;66.7
57799;BME280;43626;53.866;30.298;2023-03-26T03:48:41;1006.4;;;8.1;66.8
57799;BME280;43626;53.866;30.298;2023-03-26T03:54:03;1006.4;;;8.1;66.8
57799;BME280;43626;53.866;30.298;2023-03-26T03:59:17;1006.3;;;8.1;66.8
57799;BME280;43626;53.866;30.298;2023-03-26T04:04:29;1006.3;;;8.1;66.6
57799;BME280;43626;53.866;30.298;2023-03-26T04:09:17;1006.4;;;8;66.7
57799;BME280;43626;53.866;30.298;2023-03-26T04:13:41;1006.4;;;8.1;66.6
57799;BME280;43626;53.866;30.298;2023-03-26T04:19:01;1006.3;;;8.1;66.6
57799;BME280;43626;53.866;30.298;2023-03-26T04:24:17;1006.2;;;8.1;66.6
57799;BME280;43626;53.866;30.298;2023-03-26T04:29:36;1006.1;;;8.1;66.7
57799;BME280;43626;53.866;30.298;2023-03-26T04:34:20;1006.2;;;8.1;66.6
57799;BME280;43626;53.866;30.298;2023-03-26T04:39:02;1006.2;;;8.1;66.7
57799;BME280;43626;53.866;30.298;2023-03-26T04:44:03;1006.2;;;8.2;66.7
57799;BME280;43626;53.866;30.298;2023-03-26T04:49:19;1006.2;;;8.2;66.8
57799;BME280;43626;53.866;30.298;2023-03-26T04:54:27;1006.1;;;8.2;66.8
57799;BME280;43626;53.866;30.298;2023-03-26T04:59:18;1006.1;;;8.2;67
57799;BME280;43626;53.866;30.298;2023-03-26T05:03:51;1006.1;;;8.3;66.9
57799;BME280;43626;53.866;30.298;2023-03-26T05:09:21;1006;;;8.3;66.9
57799;BME280;43626;53.866;30.298;2023-03-26T05:14:13;1006;;;8.3;66.9
57799;BME280;43626;53.866;30.298;2023-03-26T05:19:29;1006.1;;;8.4;67
57799;BME280;43626;53.866;30.298;2023-03-26T05:24:13;1006;;;8.4;67
57799;BME280;43626;53.866;30.298;2023-03-26T05:29:09;1006.1;;;8.4;66.9
57799;BME280;43626;53.866;30.298;2023-03-26T05:33:59;1006;;;8.4;66.5
57799;BME280;43626;53.866;30.298;2023-03-26T05:39:15;1006;;;8.3;66.5
57799;BME280;43626;53.866;30.298;2023-03-26T05:44:25;1006;;;8.3;66.6
57799;BME280;43626;53.866;30.298;2023-03-26T05:49:13;1006.1;;;8.4;66.6
57799;BME280;43626;53.866;30.298;2023-03-26T05:53:41;1006.1;;;8.4;66.7
57799;BME280;43626;53.866;30.298;2023-03-26T05:59:01;1006.2;;;8.5;66.7
57799;BME280;43626;53.866;30.298;2023-03-26T06:04:13;1006.2;;;8.6;66.7
57799;BME280;43626;53.866;30.298;2023-03-26T06:09:25;1006.2;;;8.7;66.8
57799;BME280;43626;53.866;30.298;2023-03-26T06:14:13;1006.1;;;8.8;66.9
57799;BME280;43626;53.866;30.298;2023-03-26T06:18:51;1006.1;;;8.9;66.7
57799;BME280;43626;53.866;30.298;2023-03-26T06:24:03;1006.1;;;9;66.6
57799;BME280;43626;53.866;30.298;2023-03-26T06:29:15;1006.2;;;9.1;66.5
57799;BME280;43626;53.866;30.298;2023-03-26T06:34:11;1006.1;;;9.2;66.1
57799;BME280;43626;53.866;30.298;2023-03-26T06:39:17;1006.1;;;9.3;65.8
57799;BME280;43626;53.866;30.298;2023-03-26T06:43:53;1006.1;;;9.5;65.7
57799;BME280;43626;53.866;30.298;2023-03-26T06:49:03;1006.1;;;9.6;65.5
57799;BME280;43626;53.866;30.298;2023-03-26T06:54:17;1006.2;;;9.7;65.4
57799;BME280;43626;53.866;30.298;2023-03-26T06:59:23;1006.2;;;9.8;65.3
57799;BME280;43626;53.866;30.298;2023-03-26T07:04:03;1006.2;;;9.9;65
57799;BME280;43626;53.866;30.298;2023-03-26T07:08:51;1006.2;;;10.1;64.7
57799;BME280;43626;53.866;30.298;2023-03-26T07:14:21;1006.2;;;10.3;63.9
57799;BME280;43626;53.866;30.298;2023-03-26T07:19:17;1006.2;;;10.4;63
57799;BME280;43626;53.866;30.298;2023-03-26T07:24:17;1006.1;;;10.5;62.3
57799;BME280;43626;53.866;30.298;2023-03-26T07:29:31;1006.1;;;10.7;61.4
57799;BME280;43626;53.866;30.298;2023-03-26T07:33:52;1006;;;10.7;59.9
57799;BME280;43626;53.866;30.298;2023-03-26T07:38:55;1006;;;10.8;59.3
57799;BME280;43626;53.866;30.298;2023-03-26T07:43:57;1005.9;;;10.9;58.8
57799;BME280;43626;53.866;30.298;2023-03-26T07:49:19;1005.9;;;11.1;57.6
57799;BME280;43626;53.866;30.298;2023-03-26T07:54:29;1005.8;;;11.3;57
57799;BME280;43626;53.866;30.298;2023-03-26T07:59:30;1005.8;;;11.4;56.6
57799;BME280;43626;53.866;30.298;2023-03-26T08:03:56;1005.8;;;11.4;55.3
57799;BME280;43626;53.866;30.298;2023-03-26T08:08:44;1005.8;;;11.4;54
57799;BME280;43626;53.866;30.298;2023-03-26T08:14:18;1005.8;;;11.5;51.4
57799;BME280;43626;53.866;30.298;2023-03-26T08:19:35;1005.7;;;11.6;51.3
57799;BME280;43626;53.866;30.298;2023-03-26T08:23:46;1005.7;;;11.7;51.7
57799;BME280;43626;53.866;30.298;2023-03-26T08:29:09;1005.7;;;12;51.3
57799;BME280;43626;53.866;30.298;2023-03-26T08:33:41;1005.7;;;12.1;51.1
57799;BME280;43626;53.866;30.298;2023-03-26T08:39:17;1005.7;;;12.1;51.5
57799;BME280;43626;53.866;30.298;2023-03-26T08:44:12;1005.7;;;12.2;51.3
57799;BME280;43626;53.866;30.298;2023-03-26T08:49:17;1005.6;;;12.3;51.3
57799;BME280;43626;53.866;30.298;2023-03-26T08:54:13;1005.7;;;12.4;51.3
57799;BME280;43626;53.866;30.298;2023-03-26T08:58:52;1005.7;;;12.6;51.3
57799;BME280;43626;53.866;30.298;2023-03-26T09:04:20;1005.7;;;12.7;50.2
57799;BME280;43626;53.866;30.298;2023-03-26T09:09:31;1005.6;;;12.8;49.9
57799;BME280;43626;53.866;30.298;2023-03-26T09:13:46;1005.6;;;13.1;49
57799;BME280;43626;53.866;30.298;2023-03-26T09:19:12;1005.6;;;13.3;48.8
57799;BME280;43626;53.866;30.298;2023-03-26T09:23:45;1005.6;;;13.3;47.9
57799;BME280;43626;53.866;30.298;2023-03-26T09:29:21;1005.6;;;13.3;48
57799;BME280;43626;53.866;30.298;2023-03-26T09:34:30;1005.6;;;13.4;48.6
57799;BME280;43626;53.866;30.298;2023-03-26T09:39:05;1005.6;;;13.6;48.7
57799;BME280;43626;53.866;30.298;2023-03-26T09:43:54;1005.6;;;13.6;48.6
57799;BME280;43626;53.866;30.298;2023-03-26T09:49:04;1005.6;;;13.5;48.7
57799;BME280;43626;53.866;30.298;2023-03-26T09:54:21;1005.6;;;13.3;48.8
57799;BME280;43626;53.866;30.298;2023-03-26T09:59:35;1005.6;;;13.2;48.9
57799;BME280;43626;53.866;30.298;2023-03-26T10:04:10;1005.6;;;13.1;48.5
57799;BME280;43626;53.866;30.298;2023-03-26T10:09:05;1005.7;;;12.9;48.5
57799;BME280;43626;53.866;30.298;2023-03-26T10:13:47;1005.7;;;12.8;48.7
57799;BME280;43626;53.866;30.298;2023-03-26T10:19:02;1005.6;;;12.8;48.6
57799;BME280;43626;53.866;30.298;2023-03-26T10:24:31;1005.6;;;12.8;48.1
57799;BME280;43626;53.866;30.298;2023-03-26T10:28:56;1005.6;;;12.9;48.4
57799;BME280;43626;53.866;30.298;2023-03-26T10:34:07;1005.7;;;12.8;48.3
57799;BME280;43626;53.866;30.298;2023-03-26T10:38:52;1005.7;;;12.6;48.9
57799;BME280;43626;53.866;30.298;2023-03-26T10:44:23;1005.7;;;12.7;49.2
57799;BME280;43626;53.866;30.298;2023-03-26T10:49:38;1005.9;;;12.5;49.2
57799;BME280;43626;53.866;30.298;2023-03-26T10:53:54;1006;;;12.2;49.9
57799;BME280;43626;53.866;30.298;2023-03-26T10:59:04;1006.1;;;11.9;52.4
57799;BME280;43626;53.866;30.298;2023-03-26T11:03:50;1006.3;;;11.4;55.7
57799;BME280;43626;53.866;30.298;2023-03-26T11:09:15;1006.2;;;11.2;58.2
57799;BME280;43626;53.866;30.298;2023-03-26T11:14:28;1006.2;;;11.2;59.2
57799;BME280;43626;53.866;30.298;2023-03-26T11:18:43;1006.2;;;11.1;60.1
57799;BME280;43626;53.866;30.298;2023-03-26T11:24:33;1006.2;;;10.9;60.5
57799;BME280;43626;53.866;30.298;2023-03-26T11:29:11;1006.2;;;10.9;60.4
57799;BME280;43626;53.866;30.298;2023-03-26T11:34:14;1006.2;;;10.7;60.9
57799;BME280;43626;53.866;30.298;2023-03-26T11:39:31;1006.2;;;10.7;61.2
57799;BME280;43626;53.866;30.298;2023-03-26T11:43:41;1006.1;;;10.8;61.8
57799;BME280;43626;53.866;30.298;2023-03-26T11:49:04;1006.1;;;11.1;62.1
57799;BME280;43626;53.866;30.298;2023-03-26T11:53:41;1006.1;;;11.2;61.8
57799;BME280;43626;53.866;30.298;2023-03-26T11:59:14;1006.2;;;11.3;61.2
57799;BME280;43626;53.866;30.298;2023-03-26T12:04:32;1006.2;;;11.5;59.8
57799;BME280;43626;53.866;30.298;2023-03-26T12:09:14;1006.1;;;11.6;58.6
57799;BME280;43626;53.866;30.298;2023-03-26T12:14:02;1006.2;;;11.7;58.7
57799;BME280;43626;53.866;30.298;2023-03-26T12:18:42;1006.2;;;11.8;58.6
57799;BME280;43626;53.866;30.298;2023-03-26T12:24:23;1006.1;;;11.8;58.8
57799;BME280;43626;53.866;30.298;2023-03-26T12:29:29;1006.2;;;11.7;57.7
57799;BME280;43626;53.866;30.298;2023-03-26T12:34:12;1006.1;;;11.7;57.7
57799;BME280;43626;53.866;30.298;2023-03-26T12:38:49;1006;;;11.7;57.2
57799;BME280;43626;53.866;30.298;2023-03-26T12:43:50;1006;;;11.6;56.7
57799;BME280;43626;53.866;30.298;2023-03-26T12:49:17;1005.9;;;11.8;56.2
57799;BME280;43626;53.866;30.298;2023-03-26T12:54:31;1006;;;11.9;55.2
57799;BME280;43626;53.866;30.298;2023-03-26T12:59:31;1006;;;11.8;55.2
57799;BME280;43626;53.866;30.298;2023-03-26T13:04:03;1006;;;11.7;54.4
57799;BME280;43626;53.866;30.298;2023-03-26T13:08:58;1005.9;;;11.8;54.3
57799;BME280;43626;53.866;30.298;2023-03-26T13:14:19;1005.9;;;11.8;54.5
57799;BME280;43626;53.866;30.298;2023-03-26T13:19:29;1005.8;;;11.8;54.5
57799;BME280;43626;53.866;30.298;2023-03-26T13:24:20;1005.8;;;12;54
57799;BME280;43626;53.866;30.298;2023-03-26T13:28:53;1005.8;;;12.3;53.7
57799;BME280;43626;53.866;30.298;2023-03-26T13:34:20;1005.8;;;12.5;53.4
57799;BME280;43626;53.866;30.298;2023-03-26T13:39:18;1005.8;;;12.4;52.9
57799;BME280;43626;53.866;30.298;2023-03-26T13:44:30;1005.7;;;12.3;53
57799;BME280;43626;53.866;30.298;2023-03-26T13:49:26;1005.7;;;12.3;52.6
57799;BME280;43626;53.866;30.298;2023-03-26T13:53:51;1005.6;;;12.3;52.3
57799;BME280;43626;53.866;30.298;2023-03-26T13:58:51;1005.5;;;12.4;51.8
57799;BME280;43626;53.866;30.298;2023-03-26T14:04:17;1005.5;;;12.6;50.9
57799;BME280;43626;53.866;30.298;2023-03-26T14:09:27;1005.5;;;12.7;49.8
57799;BME280;43626;53.866;30.298;2023-03-26T14:14:15;1005.5;;;12.7;49.8
57799;BME280;43626;53.866;30.298;2023-03-26T14:19:00;1005.4;;;12.7;49.2
57799;BME280;43626;53.866;30.298;2023-03-26T14:24:33;1005.4;;;12.7;48.9
57799;BME280;43626;53.866;30.298;2023-03-26T14:29:19;1005.3;;;12.9;49.2
57799;BME280;43626;53.866;30.298;2023-03-26T14:34:29;1005.3;;;13;49
57799;BME280;43626;53.866;30.298;2023-03-26T14:39:17;1005.3;;;13.2;48.6
57799;BME280;43626;53.866;30.298;2023-03-26T14:48:47;1005.4;;;13.3;48.3
57799;BME280;43626;53.866;30.298;2023-03-26T14:53:44;1005.5;;;13.1;48.3
57799;BME280;43626;53.866;30.298;2023-03-26T15:00:33;1005.5;;;13;48
57799;BME280;43626;53.866;30.298;2023-03-26T15:04:26;1005.6;;;12.8;48.5
57799;BME280;43626;53.866;30.298;2023-03-26T15:13:58;1005.6;;;12.4;50
57799;BME280;43626;53.866;30.298;2023-03-26T15:19:28;1005.6;;;12.3;50.3
57799;BME280;43626;53.866;30.298;2023-03-26T15:29:01;1005.6;;;12.2;50.6
57799;BME280;43626;53.866;30.298;2023-03-26T15:34:02;1005.5;;;12.2;50.6
57799;BME280;43626;53.866;30.298;2023-03-26T15:39:48;1005.5;;;12;50.9
57799;BME280;43626;53.866;30.298;2023-03-26T15:44:20;1005.5;;;12;51.3
57799;BME280;43626;53.866;30.298;2023-03-26T15:49:25;1005.5;;;11.9;51.9
57799;BME280;43626;53.866;30.298;2023-03-26T15:54:16;1005.5;;;11.8;52.5
57799;BME280;43626;53.866;30.298;2023-03-26T15:59:28;1005.5;;;11.8;52.9
57799;BME280;43626;53.866;30.298;2023-03-26T16:03:43;1005.5;;;11.9;53.2
57799;BME280;43626;53.866;30.298;2023-03-26T16:09:29;1005.6;;;11.8;53.6
57799;BME280;43626;53.866;30.298;2023-03-26T16:14:08;1005.6;;;11.8;53.7
57799;BME280;43626;53.866;30.298;2023-03-26T16:18:42;1005.7;;;11.7;53.8
57799;BME280;43626;53.866;30.298;2023-03-26T16:24:27;1005.8;;;11.7;53.9
57799;BME280;43626;53.866;30.298;2023-03-26T16:29:19;1005.8;;;11.5;54.2
57799;BME280;43626;53.866;30.298;2023-03-26T16:34:24;1005.8;;;11.4;54.5
57799;BME280;43626;53.866;30.298;2023-03-26T16:39:17;1005.9;;;11.3;54.7
57799;BME280;43626;53.866;30.298;2023-03-26T16:43:59;1005.8;;;11.2;55.1
57799;BME280;43626;53.866;30.298;2023-03-26T16:49:31;1005.9;;;11.1;55.7
57799;BME280;43626;53.866;30.298;2023-03-26T16:53:44;1005.9;;;11;56.2
57799;BME280;43626;53.866;30.298;2023-03-26T16:59:41;1005.9;;;10.9;56.7
57799;BME280;43626;53.866;30.298;2023-03-26T17:04:20;1005.9;;;10.8;56.9
57799;BME280;43626;53.866;30.298;2023-03-26T17:09:01;1006;;;10.8;57.2
57799;BME280;43626;53.866;30.298;2023-03-26T17:14:24;1006;;;10.7;57.2
57799;BME280;43626;53.866;30.298;2023-03-26T17:18:53;1006.1;;;10.6;57.2
57799;BME280;43626;53.866;30.298;2023-03-26T17:24:31;1006.1;;;10.5;57.3
57799;BME280;43626;53.866;30.298;2023-03-26T17:29:23;1006.2;;;10.4;57.2
57799;BME280;43626;53.866;30.298;2023-03-26T17:34:32;1006.3;;;10.4;57.3
57799;BME280;43626;53.866;30.298;2023-03-26T17:43:57;1006.3;;;10.3;57.8
57799;BME280;43626;53.866;30.298;2023-03-26T17:49:12;1006.3;;;10.3;58.1
57799;BME280;43626;53.866;30.298;2023-03-26T17:54:18;1006.3;;;10.2;58.4
57799;BME280;43626;53.866;30.298;2023-03-26T17:58:50;1006.3;;;10.2;58.5
57799;BME280;43626;53.866;30.298;2023-03-26T18:04:28;1006.3;;;10.2;58.6
57799;BME280;43626;53.866;30.298;2023-03-26T18:08:57;1006.3;;;10.2;58.4
57799;BME280;43626;53.866;30.298;2023-03-26T18:14:26;1006.3;;;10.2;58.4
57799;BME280;43626;53.866;30.298;2023-03-26T18:18:46;1006.2;;;10.2;58.4
57799;BME280;43626;53.866;30.298;2023-03-26T18:23:58;1006.2;;;10.1;58.2
57799;BME280;43626;53.866;30.298;2023-03-26T18:29:28;1006.3;;;10.1;58.2
57799;BME280;43626;53.866;30.298;2023-03-26T18:33:42;1006.3;;;10;58
57799;BME280;43626;53.866;30.298;2023-03-26T18:39:28;1006.3;;;9.9;58.6
57799;BME280;43626;53.866;30.298;2023-03-26T18:44:18;1006.3;;;9.8;58.4
57799;BME280;43626;53.866;30.298;2023-03-26T18:49:02;1006.3;;;9.7;58.3
57799;BME280;43626;53.866;30.298;2023-03-26T18:54:28;1006.3;;;9.6;58.2
57799;BME280;43626;53.866;30.298;2023-03-26T18:58:41;1006.3;;;9.4;58.4
57799;BME280;43626;53.866;30.298;2023-03-26T19:04:30;1006.3;;;9.3;58.5
57799;BME280;43626;53.866;30.298;2023-03-26T19:09:20;1006.3;;;9.2;58.6
57799;BME280;43626;53.866;30.298;2023-03-26T19:14:00;1006.3;;;9.1;58.7
57799;BME280;43626;53.866;30.298;2023-03-26T19:19:04;1006.2;;;9;58.9
57799;BME280;43626;53.866;30.298;2023-03-26T19:23:58;1006.3;;;9;59.1
57799;BME280;43626;53.866;30.298;2023-03-26T19:29:28;1006.3;;;8.8;59.1
57799;BME280;43626;53.866;30.298;2023-03-26T19:34:23;1006.2;;;8.7;59.4
57799;BME280;43626;53.866;30.298;2023-03-26T19:38:42;1006.2;;;8.6;59.6
57799;BME280;43626;53.866;30.298;2023-03-26T19:44:30;1006.2;;;8.5;59.5
57799;BME280;43626;53.866;30.298;2023-03-26T19:48:54;1006.2;;;8.4;59.5
57799;BME280;43626;53.866;30.298;2023-03-26T19:54:26;1006.1;;;8.4;59.8
57799;BME280;43626;53.866;30.298;2023-03-26T19:59:20;1006.1;;;8.3;60.4
57799;BME280;43626;53.866;30.298;2023-03-26T20:03:53;1006;;;8.4;60.3
57799;BME280;43626;53.866;30.298;2023-03-26T20:09:28;1006;;;8.4;60.5
57799;BME280;43626;53.866;30.298;2023-03-26T20:13:52;1006;;;8.4;61
57799;BME280;43626;53.866;30.298;2023-03-26T20:19:30;1006;;;8.4;61.2
57799;BME280;43626;53.866;30.298;2023-03-26T20:24:18;1006;;;8.5;61.5
57799;BME280;43626;53.866;30.298;2023-03-26T20:29:12;1005.9;;;8.5;61.8
57799;BME280;43626;53.866;30.298;2023-03-26T20:34:30;1005.9;;;8.5;62.2
57799;BME280;43626;53.866;30.298;2023-03-26T20:38:42;1005.9;;;8.5;62.3
57799;BME280;43626;53.866;30.298;2023-03-26T20:44:07;1005.8;;;8.5;62.1
57799;BME280;43626;53.866;30.298;2023-03-26T20:49:30;1005.8;;;8.5;62
57799;BME280;43626;53.866;30.298;2023-03-26T20:54:00;1005.8;;;8.5;62.4
57799;BME280;43626;53.866;30.298;2023-03-26T20:59:28;1005.7;;;8.5;62.3
57799;BME280;43626;53.866;30.298;2023-03-26T21:03:50;1005.7;;;8.5;62.2
57799;BME280;43626;53.866;30.298;2023-03-26T21:09:02;1005.7;;;8.5;62.2
57799;BME280;43626;53.866;30.298;2023-03-26T21:14:29;1005.7;;;8.5;62.4
57799;BME280;43626;53.866;30.298;2023-03-26T21:18:56;1005.8;;;8.5;62.4
57799;BME280;43626;53.866;30.298;2023-03-26T21:24:27;1005.7;;;8.5;62.5
57799;BME280;43626;53.866;30.298;2023-03-26T21:28:42;1005.7;;;8.5;62.6
57799;BME280;43626;53.866;30.298;2023-03-26T21:34:08;1005.7;;;8.4;62.7
57799;BME280;43626;53.866;30.298;2023-03-26T21:39:24;1005.7;;;8.4;62.7
57799;BME280;43626;53.866;30.298;2023-03-26T21:43:58;1005.7;;;8.4;62.8
57799;BME280;43626;53.866;30.298;2023-03-26T21:49:24;1005.7;;;8.4;62.9
57799;BME280;43626;53.866;30.298;2023-03-26T21:53:42;1005.7;;;8.3;62.9
57799;BME280;43626;53.866;30.298;2023-03-26T21:59:11;1005.6;;;8.3;62.7
57799;BME280;43626;53.866;30.298;2023-03-26T22:04:33;1005.6;;;8.3;62.6
57799;BME280;43626;53.866;30.298;2023-03-26T22:08:58;1005.6;;;8.3;62.7
57799;BME280;43626;53.866;30.298;2023-03-26T22:14:24;1005.6;;;8.3;62.6
57799;BME280;43626;53.866;30.298;2023-03-26T22:18:42;1005.6;;;8.3;62.8
57799;BME280;43626;53.866;30.298;2023-03-26T22:24:02;1005.6;;;8.3;62.9
57799;BME280;43626;53.866;30.298;2023-03-26T22:29:28;1005.5;;;8.2;63
57799;BME280;43626;53.866;30.298;2023-03-26T22:33:50;1005.5;;;8.2;62.9
57799;BME280;43626;53.866;30.298;2023-03-26T22:39:26;1005.5;;;8.2;63
57799;BME280;43626;53.866;30.298;2023-03-26T22:43:52;1005.4;;;8.2;63
57799;BME280;43626;53.866;30.298;2023-03-26T22:49:10;1005.5;;;8.2;63
57799;BME280;43626;53.866;30.298;2023-03-26T22:54:28;1005.5;;;8.2;63
57799;BME280;43626;53.866;30.298;2023-03-26T22:58:58;1005.5;;;8.3;62.8
57799;BME280;43626;53.866;30.298;2023-03-26T23:04:26;1005.5;;;8.3;62.7
57799;BME280;43626;53.866;30.298;2023-03-26T23:09:30;1005.4;;;8.3;62.6
57799;BME280;43626;53.866;30.298;2023-03-26T23:14:10;1005.4;;;8.3;62.5
57799;BME280;43626;53.866;30.298;2023-03-26T23:19:30;1005.5;;;8.3;62.4
57799;BME280;43626;53.866;30.298;2023-03-26T23:24:00;1005.5;;;8.2;62.5
57799;BME280;43626;53.866;30.298;2023-03-26T23:29:28;1005.4;;;8.2;62.3
57799;BME280;43626;53.866;30.298;2023-03-26T23:33:52;1005.4;;;8.1;62.3
57799;BME280;43626;53.866;30.298;2023-03-26T23:39:28;1005.4;;;8.1;62.3
57799;BME280;43626;53.866;30.298;2023-03-26T23:44:28;1005.3;;;8;62.5
57799;BME280;43626;53.866;30.298;2023-03-26T23:49:00;1005.3;;;8;62.6
57799;BME280;43626;53.866;30.298;2023-03-26T23:54:28;1005.3;;;8;62.8
57799;BME280;43626;53.866;30.298;2023-03-26T23:58:52;1005.3;;;7.9;62.8
